地図

経路データ

SID SEASON NUMBER BASIN SUBBASIN NAME ISO_TIME NATURE LAT LON WMO_WIND WMO_PRES WMO_AGENCY TRACK_TYPE DIST2LAND LANDFALL IFLAG USA_AGENCY USA_ATCF_ID USA_LAT USA_LON USA_RECORD USA_STATUS USA_WIND USA_PRES USA_SSHS USA_R34_NE USA_R34_SE USA_R34_SW USA_R34_NW USA_R50_NE USA_R50_SE USA_R50_SW USA_R50_NW USA_R64_NE USA_R64_SE USA_R64_SW USA_R64_NW USA_POCI USA_ROCI USA_RMW USA_EYE TOKYO_LAT TOKYO_LON TOKYO_GRADE TOKYO_WIND TOKYO_PRES TOKYO_R50_DIR TOKYO_R50_LONG TOKYO_R50_SHORT TOKYO_R30_DIR TOKYO_R30_LONG TOKYO_R30_SHORT TOKYO_LAND CMA_LAT CMA_LON CMA_CAT CMA_WIND CMA_PRES HKO_LAT HKO_LON HKO_CAT HKO_WIND HKO_PRES NEWDELHI_LAT NEWDELHI_LON NEWDELHI_GRADE NEWDELHI_WIND NEWDELHI_PRES NEWDELHI_CI NEWDELHI_DP NEWDELHI_POCI REUNION_LAT REUNION_LON REUNION_TYPE REUNION_WIND REUNION_PRES REUNION_TNUM REUNION_CI REUNION_RMW REUNION_R34_NE REUNION_R34_SE REUNION_R34_SW REUNION_R34_NW REUNION_R50_NE REUNION_R50_SE REUNION_R50_SW REUNION_R50_NW REUNION_R64_NE REUNION_R64_SE REUNION_R64_SW REUNION_R64_NW BOM_LAT BOM_LON BOM_TYPE BOM_WIND BOM_PRES BOM_TNUM BOM_CI BOM_RMW BOM_R34_NE BOM_R34_SE BOM_R34_SW BOM_R34_NW BOM_R50_NE BOM_R50_SE BOM_R50_SW BOM_R50_NW BOM_R64_NE BOM_R64_SE BOM_R64_SW BOM_R64_NW BOM_ROCI BOM_POCI BOM_EYE BOM_POS_METHOD BOM_PRES_METHOD NADI_LAT NADI_LON NADI_CAT NADI_WIND NADI_PRES WELLINGTON_LAT WELLINGTON_LON WELLINGTON_WIND WELLINGTON_PRES DS824_LAT DS824_LON DS824_STAGE DS824_WIND DS824_PRES TD9636_LAT TD9636_LON TD9636_STAGE TD9636_WIND TD9636_PRES TD9635_LAT TD9635_LON TD9635_WIND TD9635_PRES TD9635_ROCI NEUMANN_LAT NEUMANN_LON NEUMANN_CLASS NEUMANN_WIND NEUMANN_PRES MLC_LAT MLC_LON MLC_CLASS MLC_WIND MLC_PRES USA_GUST BOM_GUST BOM_GUST_PER REUNION_GUST REUNION_GUST_PER USA_SEAHGT USA_SEARAD_NE USA_SEARAD_SE USA_SEARAD_SW USA_SEARAD_NW STORM_SPEED STORM_DIR
1986169N07152 1986 53 WP MM NANCY 1986-06-18 00:00:00 NR 6.90000 152.000 main 1082 1043 __________O___ -1 6.90000 152.000 1 25 15 249
1986169N07152 1986 53 WP MM NANCY 1986-06-18 03:00:00 NR 6.63289 151.296 main 1043 1016 __________P___ -1 6.63289 151.296 1 25 15 250
1986169N07152 1986 53 WP MM NANCY 1986-06-18 06:00:00 NR 6.38232 150.564 main 1016 967 __________P___ -1 6.38232 150.564 1 25 16 253
1986169N07152 1986 53 WP MM NANCY 1986-06-18 09:00:00 NR 6.16565 149.775 main 967 924 __________P___ -1 6.16565 149.775 1 25 17 257
1986169N07152 1986 53 WP MM NANCY 1986-06-18 12:00:00 NR 6.00000 148.900 main 922 898 __________O___ -1 6.00000 148.900 1 25 19 262
1986169N07152 1986 53 WP MM NANCY 1986-06-18 15:00:00 NR 5.89933 147.926 main 898 896 __________P___ -1 5.89933 147.926 1 25 20 266
1986169N07152 1986 53 WP MM NANCY 1986-06-18 18:00:00 NR 5.86588 146.905 main 896 896 __________P___ -1 5.86588 146.905 1 25 20 270
1986169N07152 1986 53 WP MM NANCY 1986-06-18 21:00:00 NR 5.89937 145.907 main 899 899 __________P___ -1 5.89937 145.907 1 25 19 274
1986169N07152 1986 53 WP MM NANCY 1986-06-19 00:00:00 NR 6.00000 145.000 main 924 924 __________O___ -1 6.00000 145.000 1 25 16 279
1986169N07152 1986 53 WP MM NANCY 1986-06-19 03:00:00 NR 6.15126 144.275 main 964 964 __________P___ -1 6.15126 144.275 1 25 14 285
1986169N07152 1986 53 WP MM NANCY 1986-06-19 06:00:00 NR 6.36631 143.645 main 1009 1009 __________P___ -1 6.36631 143.645 1 25 13 291
1986169N07152 1986 53 WP MM NANCY 1986-06-19 09:00:00 NR 6.62326 143.068 main 1049 1048 __________P___ -1 6.62326 143.068 1 25 13 295
1986169N07152 1986 53 WP MM NANCY 1986-06-19 12:00:00 NR 6.90000 142.500 main 1062 1058 __________O___ -1 6.90000 142.500 1 25 13 295
1986169N07152 1986 53 WP MM NANCY 1986-06-19 15:00:00 NR 7.15579 141.923 main 1068 1059 __________P___ -1 7.15579 141.923 1 25 13 295
1986169N07152 1986 53 WP MM NANCY 1986-06-19 18:00:00 NR 7.42628 141.339 main 1065 1065 __________P___ -1 7.42628 141.339 1 25 13 295
1986169N07152 1986 53 WP MM NANCY 1986-06-19 21:00:00 NR 7.70867 140.710 main 1078 1075 __________P___ -1 7.70867 140.710 1 25 14 293
1986169N07152 1986 53 WP MM NANCY 1986-06-20 00:00:00 NR 8.00000 140.000 main 1086 1072 __________O___ -1 8.00000 140.000 1 25 17 290
1986169N07152 1986 53 WP MM NANCY 1986-06-20 03:00:00 NR 8.27293 139.149 main 1079 1072 __________P___ -1 8.27293 139.149 1 25 19 287
1986169N07152 1986 53 WP MM NANCY 1986-06-20 06:00:00 NR 8.55561 138.217 main 1081 1075 __________P___ -1 8.55561 138.217 1 25 20 287
1986169N07152 1986 53 WP MM NANCY 1986-06-20 09:00:00 NR 8.86036 137.251 main 1092 1086 __________P___ -1 8.86036 137.251 1 25 20 289
1986169N07152 1986 53 WP MM NANCY 1986-06-20 12:00:00 NR 9.20000 136.300 main 1080 999 __________O___ -1 9.20000 136.300 1 25 20 291
1986169N07152 1986 53 WP MM NANCY 1986-06-20 15:00:00 NR 9.56836 135.400 main 991 906 __________P___ -1 9.56836 135.400 1 25 20 294
1986169N07152 1986 53 WP MM NANCY 1986-06-20 18:00:00 TS 10.0197 134.420 1004 tokyo main 895 820 _O________P___ -1 10.2000 134.000 2 1004 0 0 0 9.97460 134.525 1 25 20 296
1986169N07152 1986 53 WP MM NANCY 1986-06-20 21:00:00 TS 10.4416 133.581 main 820 764 _P________P___ -1 10.4879 133.370 2 1004 0 0 10.4185 133.687 1 25 16 297
1986169N07152 1986 53 WP MM NANCY 1986-06-21 00:00:00 TS 10.7444 132.989 1004 tokyo main 764 715 _OOO______O___ -1 10.8000 132.800 2 1004 0 0 0 10.1000 133.200 1 29 1000 10.6000 133.700 TD 25 1004 10.9000 132.900 1 25 14 305
1986169N07152 1986 53 WP MM NANCY 1986-06-21 03:00:00 TS 11.2676 132.384 main 718 660 _PPP______P___ -1 11.1622 132.315 2 1003 0 0 11.1404 132.574 1 29 1000 11.3306 132.779 TD 27 1002 11.4051 132.162 1 25 16 313
1986169N07152 1986 53 WP MM NANCY 1986-06-21 06:00:00 TS 11.8704 131.771 1002 tokyo main 662 606 _OOO______P___ -1 11.6000 131.800 2 1002 0 0 0 12.0000 132.000 1 29 1000 12.0000 131.900 TD 30 1000 11.9464 131.474 1 25 17 314
1986169N07152 1986 53 WP MM NANCY 1986-06-21 09:00:00 TS 12.4416 131.141 main 598 548 _PPP______P___ -1 12.1125 131.130 2 1002 0 0 12.5671 131.507 1 29 1000 12.5722 131.105 TD 30 997 12.5146 130.824 1 25 17 312
1986169N07152 1986 53 WP MM NANCY 1986-06-21 12:00:00 TS 12.9750 130.500 1002 tokyo main 550 498 _OOO______O___ -1 12.7000 130.400 2 1002 0 0 0 13.0000 131.000 1 29 1000 13.1000 130.400 TD 30 995 13.1000 130.200 1 25 17 311
1986169N07152 1986 53 WP MM NANCY 1986-06-21 15:00:00 TS 13.5340 129.858 main 498 453 _PPP______P___ -1 13.3275 129.670 2 1000 0 0 13.4697 130.402 1 33 997 13.6497 129.777 TD 35 992 13.6889 129.582 1 31 17 313
1986169N07152 1986 53 WP MM NANCY 1986-06-21 18:00:00 TS 14.1274 129.214 998 tokyo main 453 436 OOOO______P___ jtwc_wp WP051986 14.2000 129.100 30 -1 14.0000 129.000 2 998 0 0 0 14.0000 129.700 2 38 995 14.2000 129.200 TS 40 990 14.2914 128.984 1 37 17 315
1986169N07152 1986 53 WP MM NANCY 1986-06-21 21:00:00 TS 14.7642 128.586 main 444 418 PPPP______P___ WP051986 14.8727 128.468 40 0 14.6993 128.522 2 994 0 0 14.6777 128.865 2 43 990 14.7272 128.622 TS 42 987 14.8983 128.394 1 43 18 316
1986169N07152 1986 53 WP MM NANCY 1986-06-22 00:00:00 TS 15.4158 127.926 45 990 tokyo main 412 381 OOOO______O___ jtwc_wp WP051986 15.5000 127.800 50 0 15.4000 128.000 3 45 990 0 9 125 125 0 15.4000 128.000 3 48 985 15.3000 128.000 TS 45 985 15.5000 127.800 2 50 19 314
1986169N07152 1986 53 WP MM NANCY 1986-06-22 03:00:00 TS 16.0563 127.179 main 388 371 PPPP______P___ WP051986 16.0575 127.085 52 0 16.0732 127.151 3 47 987 0 9 162 125 16.0722 127.220 3 53 985 15.9925 127.265 TS 45 985 16.0859 127.173 2 53 19 312
1986169N07152 1986 53 WP MM NANCY 1986-06-22 06:00:00 TS 16.6729 126.448 50 985 tokyo main 376 362 OOOO______P___ jtwc_wp WP051986 16.6000 126.400 55 0 16.7000 126.300 4 50 985 0 8 200 125 0 16.7000 126.500 3 58 985 16.7000 126.500 TS 45 985 16.6646 126.542 2 57 18 313
1986169N07152 1986 53 WP MM NANCY 1986-06-22 09:00:00 TS 17.2589 125.821 main 352 307 PPPP______P___ WP051986 17.1996 125.835 60 0 17.2567 125.769 4 50 982 0 8 200 125 17.2723 125.820 3 58 982 17.3299 125.770 TS 47 982 17.2360 125.914 2 61 16 315
1986169N07152 1986 53 WP MM NANCY 1986-06-22 12:00:00 TS 17.8200 125.240 50 980 tokyo main 300 253 OOOO______O___ jtwc_wp WP051986 17.8000 125.300 65 1 17.8000 125.300 4 50 980 0 8 200 125 0 17.8000 125.200 3 58 980 17.9000 125.100 STS 50 980 17.8000 125.300 3 65 16 314
1986169N07152 1986 53 WP MM NANCY 1986-06-22 15:00:00 TS 18.3604 124.634 main 242 194 PPPP______P___ WP051986 18.3574 124.700 67 1 18.4002 124.650 4 52 977 0 8 175 112 18.2922 124.634 3 58 977 18.4072 124.519 STS 55 977 18.3450 124.666 3 67 16 314
1986169N07152 1986 53 WP MM NANCY 1986-06-22 18:00:00 TS 18.8970 124.050 55 975 tokyo main 197 168 OOOO______P___ jtwc_wp WP051986 18.9000 124.100 70 1 19.0000 124.000 4 55 975 9 30 30 1 150 100 0 18.8000 124.100 3 58 975 18.9000 124.000 STS 60 975 18.8853 124.052 3 70 15 315
1986169N07152 1986 53 WP MM NANCY 1986-06-22 21:00:00 TS 19.4445 123.495 main 168 168 PPPP______P___ WP051986 19.4349 123.520 72 1 19.5498 123.462 4 57 972 9 40 40 1 175 125 19.3775 123.527 3 63 971 19.4274 123.477 STS 65 972 19.4328 123.488 3 72 15 319
1986169N07152 1986 53 WP MM NANCY 1986-06-23 00:00:00 TS 20.0200 123.000 60 970 tokyo main 193 193 OOOO______O___ jtwc_wp WP051986 20.0000 123.000 75 1 20.1000 123.000 4 60 970 9 50 50 1 200 150 0 20.0000 123.000 4 68 968 20.0000 123.000 T 70 970 20.0000 123.000 4 75 15 324
1986169N07152 1986 53 WP MM NANCY 1986-06-23 03:00:00 TS 20.6471 122.559 main 228 155 PPPP______P___ WP051986 20.6424 122.547 75 1 20.6999 122.562 4 60 965 9 50 50 1 225 150 20.6649 122.555 4 68 967 20.6500 122.555 T 72 965 20.5784 122.576 4 76 15 329
1986169N07152 1986 53 WP MM NANCY 1986-06-23 06:00:00 TS 21.2764 122.207 60 960 tokyo main 150 103 OOOO______P___ jtwc_wp WP051986 21.3000 122.200 75 1 21.3000 122.200 4 60 960 9 50 50 1 250 150 0 21.3000 122.200 4 68 966 21.3000 122.200 T 75 960 21.1818 122.235 4 77 13 334
1986169N07152 1986 53 WP MM NANCY 1986-06-23 09:00:00 TS 21.8483 121.932 main 103 83 PPPP______P___ WP051986 21.9074 121.947 77 1 21.8499 121.897 4 65 957 9 60 45 1 250 175 21.8074 121.897 4 72 960 21.8574 121.940 T 75 957 21.8193 121.976 4 78 12 340
1986169N07152 1986 53 WP MM NANCY 1986-06-23 12:00:00 TS 22.4200 121.760 70 955 tokyo main 83 37 OOOO______O___ jtwc_wp WP051986 22.5000 121.800 80 1 22.4000 121.700 5 70 955 1 70 40 1 250 200 0 22.3000 121.700 4 77 955 22.4000 121.800 T 75 955 22.5000 121.800 4 80 12 348
1986169N07152 1986 53 WP MM NANCY 1986-06-23 15:00:00 TS 22.9833 121.660 main 32 15 PPPP______P___ WP051986 23.0475 121.720 75 1 22.9400 121.605 5 70 957 1 70 40 1 250 200 22.8100 121.598 4 72 960 22.9325 121.762 T 72 960 23.1866 121.614 4 76 13 355
1986169N07152 1986 53 WP MM NANCY 1986-06-23 18:00:00 TS 23.6643 121.643 70 960 tokyo main 10 0 OOOO______P___ jtwc_wp WP051986 23.7000 121.700 70 1 23.6000 121.600 5 70 960 1 70 40 1 250 200 0 23.5000 121.600 4 68 965 23.6000 121.800 T 70 965 23.9215 121.516 4 72 16 0
1986169N07152 1986 53 WP MM NANCY 1986-06-23 21:00:00 TS 24.5477 121.676 main 0 0 PPPP______P___ WP051986 24.5526 121.678 67 1 24.4451 121.635 5 65 967 1 65 35 1 200 150 24.5101 121.684 4 63 970 24.5101 121.850 T 65 967 24.7207 121.534 4 68 19 3
1986169N07152 1986 53 WP MM NANCY 1986-06-24 00:00:00 TS 25.6000 121.760 60 975 tokyo main 48 48 OOOO______O___ jtwc_wp WP051986 25.6000 121.700 65 1 25.5000 121.700 4 60 975 1 60 30 1 150 100 0 25.7000 121.800 3 58 975 25.6000 121.900 STS 60 970 25.6000 121.700 4 65 22 2
1986169N07152 1986 53 WP MM NANCY 1986-06-24 03:00:00 TS 26.7833 121.764 main 133 53 PPPP______P___ WP051986 26.8640 121.668 60 0 26.7995 121.655 4 55 980 1 1 137 100 26.9147 121.792 3 53 977 26.7920 121.806 STS 52 975 26.5462 121.901 4 61 24 4
1986169N07152 1986 53 WP MM NANCY 1986-06-24 06:00:00 TS 27.9744 121.954 50 985 tokyo main 51 40 OOOO______P___ jtwc_wp WP051986 28.1000 121.900 55 0 28.1000 121.800 4 50 985 0 2 125 100 0 28.1000 121.900 3 48 980 28.0000 121.900 TS 45 980 27.5720 122.268 4 57 23 16
1986169N07152 1986 53 WP MM NANCY 1986-06-24 09:00:00 TS 28.9882 122.476 main 53 53 PPPP______P___ WP051986 28.9618 122.536 52 0 29.0943 122.336 4 47 987 0 2 112 75 29.1358 122.222 3 48 982 29.0870 122.435 TS 42 982 28.6620 122.851 4 53 23 32
1986169N07152 1986 53 WP MM NANCY 1986-06-24 12:00:00 TS 29.9600 123.360 45 990 tokyo main 146 146 OOOO______O___ jtwc_wp WP051986 29.8000 123.700 50 0 30.0000 123.200 3 45 990 0 2 100 50 0 30.1000 122.900 3 48 985 30.1000 123.300 TS 40 985 29.8000 123.700 2 50 27 43
1986169N07152 1986 53 WP MM NANCY 1986-06-24 15:00:00 TS 30.9503 124.570 main 257 136 PPPP______P___ WP051986 30.9050 125.571 50 0 30.8781 124.202 3 45 992 0 2 100 50 30.9969 123.975 3 43 990 30.9732 124.266 TS 37 990 30.9982 124.834 2 48 31 48
1986169N07152 1986 53 WP MM NANCY 1986-06-24 18:00:00 TS 32.0673 126.058 45 994 tokyo main 124 38 OOOO______P___ jtwc_wp WP051986 32.1000 127.500 50 0 32.0000 125.500 3 45 994 0 3 100 50 0 32.0000 125.400 2 38 995 32.0000 125.500 TS 35 995 32.2199 126.251 2 47 36 45
1986169N07152 1986 53 WP MM NANCY 1986-06-24 21:00:00 TS 33.4878 127.595 main 64 24 PPPP______P___ WP051986 33.3306 128.625 47 0 33.8649 127.179 3 996 0 3 33.3783 126.983 2 38 996 33.4310 127.041 TS 35 996 33.4057 127.869 2 46 38 43
1986169N07152 1986 53 WP MM NANCY 1986-06-25 00:00:00 MX 34.8375 129.200 998 tokyo main 28 28 OOOO______O___ jtwc_wp WP051986 34.5000 129.600 45 0 35.5000 129.000 6 998 0 0 0 34.7000 128.800 2 38 997 35.1000 128.800 TS 35 997 34.5000 129.600 2 45 34 51
1986169N07152 1986 53 WP MM NANCY 1986-06-25 03:00:00 MX 35.6401 130.859 main 125 82 PPP_______P___ WP051986 35.4700 130.919 37 0 35.9306 130.481 6 998 0 0 35.5563 130.820 2 38 997 TS 35.5186 131.248 2 41 31 63
1986169N07152 1986 53 WP MM NANCY 1986-06-25 06:00:00 ET 36.2348 132.638 998 tokyo main 82 82 OOO_______P___ jtwc_wp WP051986 36.3000 132.500 30 -1 36.0000 132.000 6 998 0 0 0 36.2000 132.800 9 38 997 36.4295 132.990 2 37 31 66
1986169N07152 1986 53 WP MM NANCY 1986-06-25 09:00:00 ET 36.9362 134.410 main 144 53 _PP_______P___ WP051986 -1 36.3859 133.871 6 998 0 0 36.9466 134.252 9 38 997 37.2009 134.838 2 33 32 66
1986169N07152 1986 53 WP MM NANCY 1986-06-25 12:00:00 ET 37.5500 136.300 998 tokyo main 49 0 _OO_______O___ -1 37.0000 136.000 6 998 0 0 0 37.5000 136.000 9 38 997 37.8000 136.800 1 30 37 77
1986169N07152 1986 53 WP MM NANCY 1986-06-25 15:00:00 ET 37.7919 138.998 main 0 0 __P_______P___ -1 6 0 0 37.5818 139.063 9 38 995 38.2120 138.869 1 30 43 88
1986169N07152 1986 53 WP MM NANCY 1986-06-25 18:00:00 ET 37.7000 141.800 main 71 71 __O_______O___ -1 37.5000 142.000 9 38 994 38.5000 141.000 5 30 36 92
1986169N07152 1986 53 WP MM NANCY 1986-06-25 21:00:00 ET 37.6765 143.519 main 187 187 __P___________ -1 37.6765 143.519 9 38 992 5 22 82
1986169N07152 1986 53 WP MM NANCY 1986-06-26 00:00:00 ET 38.0000 144.500 main 259 259 __O___________ -1 38.0000 144.500 9 38 990 19 67
1986169N07152 1986 53 WP MM NANCY 1986-06-26 03:00:00 ET 38.4213 145.713 main 333 333 __P___________ -1 38.4213 145.713 9 38 990 20 67
1986169N07152 1986 53 WP MM NANCY 1986-06-26 06:00:00 ET 38.8000 146.900 main 419 419 __O___________ -1 38.8000 146.900 9 38 990 20 74
1986169N07152 1986 53 WP MM NANCY 1986-06-26 09:00:00 ET 38.9603 148.127 main 514 514 __P___________ -1 38.9603 148.127 9 38 990 18 84
1986169N07152 1986 53 WP MM NANCY 1986-06-26 12:00:00 ET 39.0000 149.200 main 560 560 __O___________ -1 39.0000 149.200 9 38 990 14 88
1986169N07152 1986 53 WP MM NANCY 1986-06-26 15:00:00 ET 39.0131 149.968 main 599 599 __P___________ -1 39.0131 149.968 9 38 990 11 90
1986169N07152 1986 53 WP MM NANCY 1986-06-26 18:00:00 ET 39.0000 150.600 main 632 632 __O___________ -1 39.0000 150.600 9 38 990 11 91
1986169N07152 1986 53 WP MM NANCY 1986-06-26 21:00:00 ET 39.0008 151.405 main 678 678 __P___________ -1 39.0008 151.405 9 38 990 11 90
1986169N07152 1986 53 WP MM NANCY 1986-06-27 00:00:00 ET 39.0000 152.000 main 715 715 __O___________ -1 39.0000 152.000 9 38 990 6 90
1986169N07152 1986 53 WP MM NANCY 1986-06-27 03:00:00 ET 38.9995 152.140 main 722 715 __P___________ -1 38.9995 152.140 9 38 990 0 0
1986169N07152 1986 53 WP MM NANCY 1986-06-27 06:00:00 ET 39.0000 152.000 main 715 __O___________ -1 39.0000 152.000 9 38 990 2 270

デジタル台風データ・検索

IBTrACS Databaseについて

本データベースは、米国NOAAが公開する1842年以降の世界の熱帯低気圧のベストトラックデータアーカイブInternational Best Track Archive for Climate Stewardship (IBTrACS)を、ウェブで閲覧しやすい形式に変換したものです。

最終更新日:2021-10-21